createdAt,value
2023-02-03T00:00:03.320Z,1016.46
2023-02-03T00:01:03.340Z,1016.42
2023-02-03T00:02:03.470Z,1016.44
2023-02-03T00:03:03.404Z,1016.47
2023-02-03T00:04:03.402Z,1016.39
2023-02-03T00:05:03.425Z,1016.38
2023-02-03T00:06:03.439Z,1016.36
2023-02-03T00:07:03.464Z,1016.35
2023-02-03T00:08:03.481Z,1016.36
2023-02-03T00:09:03.498Z,1016.35
2023-02-03T00:10:03.544Z,1016.32
2023-02-03T00:11:03.544Z,1016.31
2023-02-03T00:12:03.561Z,1016.31
2023-02-03T00:13:03.591Z,1016.26
2023-02-03T00:14:03.608Z,1016.26
2023-02-03T00:15:03.627Z,1016.26
2023-02-03T00:16:03.688Z,1016.26
2023-02-03T00:17:03.672Z,1016.31
2023-02-03T00:18:03.696Z,1016.28
2023-02-03T00:19:03.721Z,1016.26
2023-02-03T00:20:03.734Z,1016.27
2023-02-03T00:21:03.752Z,1016.32
2023-02-03T00:22:03.777Z,1016.30
2023-02-03T00:23:03.803Z,1016.33
2023-02-03T00:24:03.831Z,1016.33
2023-02-03T00:25:03.840Z,1016.33
2023-02-03T00:26:03.857Z,1016.29
2023-02-03T00:27:03.878Z,1016.30
2023-02-03T00:28:03.936Z,1016.28
2023-02-03T00:29:03.922Z,1016.33
2023-02-03T00:30:03.951Z,1016.30
2023-02-03T00:31:03.963Z,1016.28
2023-02-03T00:32:04.117Z,1016.30
2023-02-03T00:33:04.007Z,1016.28
2023-02-03T00:34:04.033Z,1016.32
2023-02-03T00:35:04.053Z,1016.37
2023-02-03T00:36:04.069Z,1016.40
2023-02-03T00:37:04.089Z,1016.44
2023-02-03T00:38:04.118Z,1016.41
2023-02-03T00:39:04.132Z,1016.40
2023-02-03T00:40:04.151Z,1016.35
2023-02-03T00:41:04.174Z,1016.33
2023-02-03T00:42:04.202Z,1016.42
2023-02-03T00:43:04.217Z,1016.39
2023-02-03T00:44:04.258Z,1016.38
2023-02-03T00:45:04.257Z,1016.36
2023-02-03T00:46:04.320Z,1016.37
2023-02-03T00:47:04.300Z,1016.43
2023-02-03T00:48:04.320Z,1016.38
2023-02-03T00:49:04.345Z,1016.45
2023-02-03T00:50:04.363Z,1016.42
2023-02-03T00:51:04.380Z,1016.45
2023-02-03T00:52:04.405Z,1016.48
2023-02-03T00:53:04.425Z,1016.49
2023-02-03T00:54:04.447Z,1016.51
2023-02-03T00:55:04.472Z,1016.50
2023-02-03T00:56:04.492Z,1016.55
2023-02-03T00:57:04.509Z,1016.54
2023-02-03T00:58:04.540Z,1016.51
2023-02-03T00:59:04.551Z,1016.52
2023-02-03T01:00:04.571Z,1016.53
2023-02-03T01:01:04.654Z,1016.54
2023-02-03T01:02:04.657Z,1016.57
2023-02-03T01:03:04.647Z,1016.66
2023-02-03T01:04:04.663Z,1016.69
2023-02-03T01:05:04.678Z,1016.71
2023-02-03T01:06:04.699Z,1016.74
2023-02-03T01:07:04.721Z,1016.70
2023-02-03T01:08:04.740Z,1016.71
2023-02-03T01:09:04.772Z,1016.70
2023-02-03T01:10:04.786Z,1016.70
2023-02-03T01:11:04.809Z,1016.76
2023-02-03T01:12:04.823Z,1016.77
2023-02-03T01:13:04.843Z,1016.73
2023-02-03T01:14:04.895Z,1016.70
2023-02-03T01:15:04.894Z,1016.64
2023-02-03T01:16:04.952Z,1016.62
2023-02-03T01:17:05.002Z,1016.68
2023-02-03T01:18:04.950Z,1016.66
2023-02-03T01:19:04.970Z,1016.58
2023-02-03T01:20:05.088Z,1016.62
2023-02-03T01:21:05.010Z,1016.58
2023-02-03T01:22:05.030Z,1016.52
2023-02-03T01:23:05.052Z,1016.54
2023-02-03T01:24:05.088Z,1016.56
2023-02-03T01:25:05.098Z,1016.63
2023-02-03T01:26:05.117Z,1016.66
2023-02-03T01:27:05.139Z,1016.66
2023-02-03T01:28:05.190Z,1016.67
2023-02-03T01:29:05.184Z,1016.62
2023-02-03T01:30:05.230Z,1016.65
2023-02-03T01:31:05.344Z,1016.67
2023-02-03T01:32:05.322Z,1016.69
2023-02-03T01:33:05.262Z,1016.68
2023-02-03T01:34:05.279Z,1016.70
2023-02-03T01:35:05.308Z,1016.70
2023-02-03T01:36:05.327Z,1016.61
2023-02-03T01:37:05.346Z,1016.67
2023-02-03T01:38:05.375Z,1016.62
2023-02-03T01:39:05.394Z,1016.55
2023-02-03T01:40:05.535Z,1016.55
2023-02-03T01:41:05.445Z,1016.53
2023-02-03T01:42:05.451Z,1016.57
2023-02-03T01:43:05.471Z,1016.55
2023-02-03T01:44:05.497Z,1016.49
2023-02-03T01:45:05.528Z,1016.46
2023-02-03T01:46:05.643Z,1016.45
2023-02-03T01:47:05.561Z,1016.47
2023-02-03T01:48:05.597Z,1016.43
2023-02-03T01:49:05.613Z,1016.47
2023-02-03T01:50:05.617Z,1016.45
2023-02-03T01:51:05.644Z,1016.43
2023-02-03T01:52:05.669Z,1016.38
2023-02-03T01:53:05.679Z,1016.30
2023-02-03T01:54:05.703Z,1016.32
2023-02-03T01:55:05.737Z,1016.38
2023-02-03T01:56:05.747Z,1016.42
2023-02-03T01:57:05.774Z,1016.42
2023-02-03T01:58:05.790Z,1016.42
2023-02-03T01:59:05.807Z,1016.35
2023-02-03T02:00:05.833Z,1016.36
2023-02-03T02:01:05.904Z,1016.34
2023-02-03T02:02:05.951Z,1016.38
2023-02-03T02:03:05.893Z,1016.35
2023-02-03T02:04:05.916Z,1016.33
2023-02-03T02:05:05.942Z,1016.31
2023-02-03T02:06:05.960Z,1016.23
2023-02-03T02:07:05.976Z,1016.22
2023-02-03T02:08:06.002Z,1016.22
2023-02-03T02:09:06.024Z,1016.16
2023-02-03T02:10:06.041Z,1016.16
2023-02-03T02:11:06.061Z,1016.13
2023-02-03T02:12:06.093Z,1016.05
2023-02-03T02:13:06.104Z,1016.01
2023-02-03T02:14:06.126Z,1016.00
2023-02-03T02:15:06.152Z,1015.96
2023-02-03T02:16:06.247Z,1015.85
2023-02-03T02:17:06.190Z,1015.91
2023-02-03T02:18:06.207Z,1015.69
2023-02-03T02:19:06.228Z,1015.75
2023-02-03T02:20:06.248Z,1015.60
2023-02-03T02:21:06.272Z,1015.60
2023-02-03T02:22:06.291Z,1015.63
2023-02-03T02:23:06.310Z,1015.72
2023-02-03T02:24:06.342Z,1015.79
2023-02-03T02:25:06.354Z,1015.80
2023-02-03T02:26:06.375Z,1015.80
2023-02-03T02:27:06.394Z,1015.73
2023-02-03T02:28:06.459Z,1015.80
2023-02-03T02:29:06.443Z,1015.73
2023-02-03T02:30:06.459Z,1015.72
2023-02-03T02:31:06.654Z,1015.64
2023-02-03T02:32:06.507Z,1015.49
2023-02-03T02:33:06.527Z,1015.52
2023-02-03T02:34:06.545Z,1015.54
2023-02-03T02:35:06.564Z,1015.55
2023-02-03T02:36:06.584Z,1015.51
2023-02-03T02:37:06.605Z,1015.55
2023-02-03T02:38:06.629Z,1015.62
2023-02-03T02:39:06.648Z,1015.54
2023-02-03T02:40:06.678Z,1015.53
2023-02-03T02:41:06.691Z,1015.50
2023-02-03T02:42:06.718Z,1015.53
2023-02-03T02:43:06.735Z,1015.59
2023-02-03T02:44:06.756Z,1015.65
2023-02-03T02:45:06.775Z,1015.69
2023-02-03T02:46:06.904Z,1015.71
2023-02-03T02:47:06.820Z,1015.70
2023-02-03T02:48:06.836Z,1015.74
2023-02-03T02:49:06.858Z,1015.80
2023-02-03T02:50:06.882Z,1015.82
2023-02-03T02:51:06.916Z,1015.83
2023-02-03T02:52:14.079Z,1015.89
2023-02-03T02:54:11.404Z,1016.07
2023-02-03T02:55:10.940Z,1016.02
2023-02-03T02:57:14.931Z,1016.14
2023-02-03T02:58:14.956Z,1016.12
2023-02-03T03:00:19.434Z,1016.31
2023-02-03T03:01:19.002Z,1016.19
2023-02-03T03:03:11.897Z,1016.11
2023-02-03T03:04:11.890Z,1016.10
2023-02-03T03:06:16.386Z,1015.92
2023-02-03T03:07:15.906Z,1015.93
2023-02-03T03:09:19.910Z,1015.98
2023-02-03T03:10:19.922Z,1016.00
2023-02-03T03:11:19.944Z,1016.01
2023-02-03T03:12:19.961Z,1016.04
2023-02-03T03:13:19.991Z,1015.98
2023-02-03T03:14:20.001Z,1015.96
2023-02-03T03:15:20.024Z,1015.95
2023-02-03T03:16:20.171Z,1015.90
2023-02-03T03:17:20.066Z,1015.78
2023-02-03T03:18:20.094Z,1015.73
2023-02-03T03:19:20.127Z,1015.72
2023-02-03T03:20:20.138Z,1015.73
2023-02-03T03:21:20.162Z,1015.75
2023-02-03T03:22:20.169Z,1015.80
2023-02-03T03:23:20.199Z,1015.83
2023-02-03T03:24:20.212Z,1015.84
2023-02-03T03:25:20.232Z,1015.81
2023-02-03T03:26:20.259Z,1015.76
2023-02-03T03:27:20.289Z,1015.71
2023-02-03T03:28:20.332Z,1015.76
2023-02-03T03:29:20.321Z,1015.72
2023-02-03T03:30:20.339Z,1015.71
2023-02-03T03:31:20.500Z,1015.67
2023-02-03T03:32:20.392Z,1015.70
2023-02-03T03:33:20.407Z,1015.70
2023-02-03T03:34:20.424Z,1015.65
2023-02-03T03:35:20.446Z,1015.60
2023-02-03T03:36:20.468Z,1015.56
2023-02-03T03:37:20.490Z,1015.69
2023-02-03T03:38:20.508Z,1015.66
2023-02-03T03:39:20.528Z,1015.69
2023-02-03T03:40:20.554Z,1015.69
2023-02-03T03:41:20.592Z,1015.69
2023-02-03T03:42:20.609Z,1015.66
2023-02-03T03:43:20.609Z,1015.66
2023-02-03T03:44:20.643Z,1015.68
2023-02-03T03:45:20.658Z,1015.70
2023-02-03T03:46:20.718Z,1015.73
2023-02-03T03:47:20.697Z,1015.75
2023-02-03T03:48:20.718Z,1015.71
2023-02-03T03:49:20.744Z,1015.71
2023-02-03T03:50:20.764Z,1015.66
2023-02-03T03:51:20.801Z,1015.63
2023-02-03T03:52:20.804Z,1015.54
2023-02-03T03:53:20.827Z,1015.51
2023-02-03T03:54:20.871Z,1015.53
2023-02-03T03:55:20.871Z,1015.61
2023-02-03T03:56:20.887Z,1015.62
2023-02-03T03:57:20.910Z,1015.57
2023-02-03T03:58:20.930Z,1015.52
2023-02-03T03:59:20.954Z,1015.53
2023-02-03T04:00:20.973Z,1015.51
2023-02-03T04:01:21.054Z,1015.46
2023-02-03T04:02:21.074Z,1015.41
2023-02-03T04:03:21.076Z,1015.46
2023-02-03T04:04:21.054Z,1015.47
2023-02-03T04:05:21.078Z,1015.50
2023-02-03T04:06:21.100Z,1015.39
2023-02-03T04:07:21.149Z,1015.28
2023-02-03T04:08:21.148Z,1015.37
2023-02-03T04:09:21.164Z,1015.49
2023-02-03T04:10:21.181Z,1015.46
2023-02-03T04:11:21.217Z,1015.49
2023-02-03T04:12:21.224Z,1015.46
2023-02-03T04:13:21.251Z,1015.18
2023-02-03T04:14:21.268Z,1015.31
2023-02-03T04:15:21.288Z,1015.23
2023-02-03T04:16:21.366Z,1015.25
2023-02-03T04:17:21.340Z,1015.27
2023-02-03T04:18:21.356Z,1015.31
2023-02-03T04:19:21.373Z,1015.39
2023-02-03T04:20:21.400Z,1015.38
2023-02-03T04:21:21.413Z,1015.44
2023-02-03T04:22:21.436Z,1015.40
2023-02-03T04:23:21.459Z,1015.31
2023-02-03T04:24:21.477Z,1015.40
2023-02-03T04:25:21.506Z,1015.40
2023-02-03T04:26:21.520Z,1015.46
2023-02-03T04:27:21.543Z,1015.46
2023-02-03T04:28:21.561Z,1015.42
2023-02-03T04:29:21.597Z,1015.39
2023-02-03T04:30:21.612Z,1015.43
2023-02-03T04:31:21.774Z,1015.39
2023-02-03T04:32:21.644Z,1015.35
2023-02-03T04:33:21.667Z,1015.37
2023-02-03T04:34:21.691Z,1015.43
2023-02-03T04:35:21.703Z,1015.37
2023-02-03T04:36:21.733Z,1015.45
2023-02-03T04:37:21.752Z,1015.50
2023-02-03T04:38:21.773Z,1015.53
2023-02-03T04:39:21.805Z,1015.52
2023-02-03T04:40:21.814Z,1015.51
2023-02-03T04:41:21.844Z,1015.39
2023-02-03T04:42:21.870Z,1015.40
2023-02-03T04:43:21.877Z,1015.38
2023-02-03T04:44:21.906Z,1015.34
2023-02-03T04:45:21.927Z,1015.38
2023-02-03T04:46:21.944Z,1015.41
2023-02-03T04:47:21.967Z,1015.45
2023-02-03T04:48:21.987Z,1015.50
2023-02-03T04:49:22.003Z,1015.51
2023-02-03T04:50:22.026Z,1015.43
2023-02-03T04:51:22.056Z,1015.38
2023-02-03T04:52:22.078Z,1015.31
2023-02-03T04:53:22.095Z,1015.29
2023-02-03T04:54:22.111Z,1015.21
2023-02-03T04:55:22.130Z,1015.22
2023-02-03T04:56:22.168Z,1015.18
2023-02-03T04:57:22.185Z,1015.17
2023-02-03T04:58:22.193Z,1015.11
2023-02-03T04:59:22.219Z,1015.14
2023-02-03T05:00:22.242Z,1015.12
2023-02-03T05:01:22.301Z,1015.13
2023-02-03T05:02:22.280Z,1015.12
2023-02-03T05:03:24.959Z,1015.11
2023-02-03T05:04:22.321Z,1015.09
2023-02-03T05:05:22.344Z,1015.05
2023-02-03T05:06:22.367Z,1015.08
2023-02-03T05:07:22.380Z,1015.14
2023-02-03T05:08:22.416Z,1015.13
2023-02-03T05:09:22.428Z,1015.10
2023-02-03T05:10:22.449Z,1015.04
2023-02-03T05:11:22.469Z,1015.04
2023-02-03T05:12:22.487Z,1015.01
2023-02-03T05:13:22.510Z,1015.07
2023-02-03T05:14:22.539Z,1015.05
2023-02-03T05:15:22.553Z,1015.04
2023-02-03T05:16:22.621Z,1014.98
2023-02-03T05:17:22.595Z,1014.91
2023-02-03T05:18:22.618Z,1014.87
2023-02-03T05:19:22.642Z,1014.85
2023-02-03T05:20:22.670Z,1014.88
2023-02-03T05:21:22.681Z,1014.88
2023-02-03T05:22:22.705Z,1014.87
2023-02-03T05:23:22.723Z,1014.92
2023-02-03T05:24:22.746Z,1014.94
2023-02-03T05:25:22.795Z,1014.87
2023-02-03T05:26:22.788Z,1014.91
2023-02-03T05:27:22.810Z,1014.95
2023-02-03T05:28:22.841Z,1014.93
2023-02-03T05:29:22.848Z,1014.92
2023-02-03T05:30:22.868Z,1014.92
2023-02-03T05:31:22.964Z,1014.95
2023-02-03T05:32:22.913Z,1015.00
2023-02-03T05:33:22.941Z,1014.93
2023-02-03T05:34:22.952Z,1014.92
2023-02-03T05:35:22.976Z,1014.78
2023-02-03T05:36:22.997Z,1014.81
2023-02-03T05:37:23.045Z,1014.79
2023-02-03T05:38:23.050Z,1014.78
2023-02-03T05:39:23.074Z,1014.79
2023-02-03T05:40:23.105Z,1014.82
2023-02-03T05:41:23.097Z,1014.77
2023-02-03T05:42:23.123Z,1014.83
2023-02-03T05:43:23.167Z,1014.84
2023-02-03T05:44:23.164Z,1014.84
2023-02-03T05:45:23.237Z,1014.94
2023-02-03T05:46:23.213Z,1014.92
2023-02-03T05:47:23.224Z,1014.79
2023-02-03T05:48:23.250Z,1014.83
2023-02-03T05:49:23.397Z,1014.76
2023-02-03T05:50:23.295Z,1014.80
2023-02-03T05:51:23.320Z,1014.87
2023-02-03T05:52:23.335Z,1014.80
2023-02-03T05:53:23.357Z,1014.84
2023-02-03T05:54:23.390Z,1014.90
2023-02-03T05:55:23.398Z,1014.88
2023-02-03T05:56:23.419Z,1014.97
2023-02-03T05:57:23.442Z,1014.96
2023-02-03T05:58:23.470Z,1015.03
2023-02-03T05:59:23.481Z,1014.98
2023-02-03T06:00:23.509Z,1014.95
2023-02-03T06:01:23.528Z,1014.91
2023-02-03T06:02:23.545Z,1014.92
2023-02-03T06:03:23.686Z,1015.02
2023-02-03T06:04:23.629Z,1015.03
2023-02-03T06:05:23.609Z,1015.04
2023-02-03T06:06:23.639Z,1015.06
2023-02-03T06:07:23.656Z,1015.05
2023-02-03T06:08:23.680Z,1014.98
2023-02-03T06:09:23.695Z,1014.96
2023-02-03T06:10:23.715Z,1014.83
2023-02-03T06:11:23.741Z,1014.96
2023-02-03T06:12:23.760Z,1014.85
2023-02-03T06:13:23.779Z,1014.93
2023-02-03T06:14:23.798Z,1014.87
2023-02-03T06:15:23.819Z,1014.93
2023-02-03T06:16:23.860Z,1014.93
2023-02-03T06:17:23.868Z,1014.87
2023-02-03T06:18:23.880Z,1014.84
2023-02-03T06:19:23.908Z,1014.87
2023-02-03T06:20:23.936Z,1014.94
2023-02-03T06:21:23.951Z,1014.91
2023-02-03T06:22:23.967Z,1015.02
2023-02-03T06:23:23.993Z,1014.94
2023-02-03T06:24:24.010Z,1014.95
2023-02-03T06:25:24.031Z,1014.99
2023-02-03T06:26:24.055Z,1014.98
2023-02-03T06:27:24.081Z,1015.00
2023-02-03T06:28:24.096Z,1015.02
2023-02-03T06:29:24.118Z,1015.02
2023-02-03T06:30:24.146Z,1015.04
2023-02-03T06:31:24.236Z,1015.11
2023-02-03T06:32:24.174Z,1014.99
2023-02-03T06:33:24.208Z,1015.00
2023-02-03T06:34:24.221Z,1015.08
2023-02-03T06:35:24.243Z,1015.05
2023-02-03T06:36:24.261Z,1015.06
2023-02-03T06:37:24.924Z,1014.94
2023-02-03T06:38:24.305Z,1014.93
2023-02-03T06:39:24.327Z,1014.95
2023-02-03T06:40:24.462Z,1014.89
2023-02-03T06:41:24.377Z,1014.91
2023-02-03T06:42:24.388Z,1014.92
2023-02-03T06:43:24.409Z,1014.87
2023-02-03T06:44:24.434Z,1014.90
2023-02-03T06:45:24.452Z,1014.90
2023-02-03T06:46:24.500Z,1014.85
2023-02-03T06:47:24.494Z,1014.95
2023-02-03T06:48:24.518Z,1015.01
2023-02-03T06:49:24.550Z,1015.01
2023-02-03T06:50:24.724Z,1015.11
2023-02-03T06:51:24.577Z,1015.09
2023-02-03T06:52:24.598Z,1015.07
2023-02-03T06:53:24.620Z,1015.02
2023-02-03T06:54:24.642Z,1015.08
2023-02-03T06:55:24.661Z,1015.07
2023-02-03T06:56:24.686Z,1014.98
2023-02-03T06:57:24.704Z,1015.02
2023-02-03T06:58:24.737Z,1015.01
2023-02-03T06:59:24.749Z,1015.07
2023-02-03T07:00:24.774Z,1015.12
2023-02-03T07:01:24.818Z,1015.10
2023-02-03T07:02:24.871Z,1015.14
2023-02-03T07:03:24.831Z,1015.14
2023-02-03T07:04:24.851Z,1015.10
2023-02-03T07:05:24.879Z,1014.99
2023-02-03T07:06:24.896Z,1015.06
2023-02-03T07:07:24.915Z,1014.94
2023-02-03T07:08:24.936Z,1014.97
2023-02-03T07:09:24.964Z,1015.01
2023-02-03T07:10:25.070Z,1015.00
2023-02-03T07:11:24.999Z,1014.99
2023-02-03T07:12:25.023Z,1014.97
2023-02-03T07:13:25.042Z,1015.00
2023-02-03T07:14:25.063Z,1014.99
2023-02-03T07:15:25.084Z,1014.95
2023-02-03T07:16:25.105Z,1014.96
2023-02-03T07:17:25.127Z,1015.01
2023-02-03T07:18:47.751Z,1014.92
2023-02-03T07:19:25.183Z,1015.00
2023-02-03T07:20:25.377Z,1014.92
2023-02-03T07:21:25.215Z,1014.86
2023-02-03T07:22:25.236Z,1014.86
2023-02-03T07:23:25.252Z,1014.89
2023-02-03T07:24:25.283Z,1014.87
2023-02-03T07:25:25.321Z,1014.84
2023-02-03T07:26:25.332Z,1014.87
2023-02-03T07:27:25.342Z,1014.87
2023-02-03T07:28:25.379Z,1014.94
2023-02-03T07:29:25.379Z,1014.99
2023-02-03T07:30:25.552Z,1014.99
2023-02-03T07:31:25.545Z,1014.97
2023-02-03T07:32:25.439Z,1015.00
2023-02-03T07:33:25.467Z,1014.98
2023-02-03T07:34:25.484Z,1014.92
2023-02-03T07:35:25.512Z,1014.84
2023-02-03T07:36:25.529Z,1014.81
2023-02-03T07:37:25.547Z,1014.85
2023-02-03T07:38:25.583Z,1014.88
2023-02-03T07:39:25.589Z,1014.86
2023-02-03T07:40:25.851Z,1014.83
2023-02-03T07:41:25.652Z,1014.88
2023-02-03T07:42:25.653Z,1014.88
2023-02-03T07:43:25.676Z,1014.89
2023-02-03T07:44:25.695Z,1014.87
2023-02-03T07:45:25.718Z,1014.90
2023-02-03T07:46:25.751Z,1014.84
2023-02-03T07:47:25.758Z,1014.83
2023-02-03T07:48:25.780Z,1014.79
2023-02-03T07:49:25.802Z,1014.79
2023-02-03T07:50:26.212Z,1014.85
2023-02-03T07:51:25.842Z,1014.83
2023-02-03T07:52:25.863Z,1014.77
2023-02-03T07:53:25.905Z,1014.80
2023-02-03T07:54:25.919Z,1014.84
2023-02-03T07:55:25.927Z,1014.77
2023-02-03T07:56:25.949Z,1014.76
2023-02-03T07:57:25.986Z,1014.85
2023-02-03T07:58:25.986Z,1014.85
2023-02-03T07:59:26.031Z,1014.79
2023-02-03T08:00:26.313Z,1014.80
2023-02-03T08:01:26.076Z,1014.70
2023-02-03T08:02:26.074Z,1014.71
2023-02-03T08:03:26.098Z,1014.74
2023-02-03T08:04:26.118Z,1014.74
2023-02-03T08:05:26.139Z,1014.76
2023-02-03T08:06:26.163Z,1014.80
2023-02-03T08:07:26.182Z,1014.70
2023-02-03T08:08:26.209Z,1014.73
2023-02-03T08:09:26.289Z,1014.79
2023-02-03T08:10:26.547Z,1014.79
2023-02-03T08:11:26.266Z,1014.82
2023-02-03T08:12:26.284Z,1014.79
2023-02-03T08:13:26.313Z,1014.80
2023-02-03T08:14:26.329Z,1014.80
2023-02-03T08:15:26.351Z,1014.79
2023-02-03T08:16:26.400Z,1014.75
2023-02-03T08:17:26.391Z,1014.77
2023-02-03T08:18:26.415Z,1014.76
2023-02-03T08:19:26.433Z,1014.78
2023-02-03T08:20:26.836Z,1014.79
2023-02-03T08:21:26.480Z,1014.82
2023-02-03T08:22:26.495Z,1014.78
2023-02-03T08:23:26.523Z,1014.83
2023-02-03T08:24:26.539Z,1014.97
2023-02-03T08:25:26.567Z,1014.86
2023-02-03T08:26:26.579Z,1014.82
2023-02-03T08:27:26.620Z,1014.81
2023-02-03T08:28:26.636Z,1014.89
2023-02-03T08:29:26.647Z,1014.84
2023-02-03T08:30:26.974Z,1014.84
2023-02-03T08:31:26.785Z,1014.87
2023-02-03T08:32:26.724Z,1014.84
2023-02-03T08:33:26.728Z,1014.83
2023-02-03T08:34:26.742Z,1014.83
2023-02-03T08:35:26.772Z,1014.88
2023-02-03T08:36:26.795Z,1014.85
2023-02-03T08:37:26.824Z,1014.85
2023-02-03T08:38:26.831Z,1014.83
2023-02-03T08:39:26.852Z,1014.73
2023-02-03T08:40:27.192Z,1014.79
2023-02-03T08:41:26.930Z,1014.86
2023-02-03T08:42:26.915Z,1014.86
2023-02-03T08:43:26.938Z,1014.88
2023-02-03T08:44:26.965Z,1014.84
2023-02-03T08:45:27.045Z,1014.80
2023-02-03T08:46:27.003Z,1014.84
2023-02-03T08:47:27.025Z,1014.80
2023-02-03T08:48:27.043Z,1014.77
2023-02-03T08:49:27.066Z,1014.82
2023-02-03T08:50:27.439Z,1014.76
2023-02-03T08:51:27.107Z,1014.82
2023-02-03T08:52:27.141Z,1014.72
2023-02-03T08:53:27.159Z,1014.69
2023-02-03T08:54:27.188Z,1014.65
2023-02-03T08:55:27.222Z,1014.75
2023-02-03T08:56:27.268Z,1014.68
2023-02-03T08:57:27.242Z,1014.70
2023-02-03T08:58:27.252Z,1014.67
2023-02-03T08:59:27.277Z,1014.60
2023-02-03T09:00:27.751Z,1014.59
2023-02-03T09:01:27.401Z,1014.63
2023-02-03T09:02:27.335Z,1014.57
2023-02-03T09:03:27.358Z,1014.58
2023-02-03T09:04:27.417Z,1014.57
2023-02-03T09:05:27.403Z,1014.61
2023-02-03T09:06:27.423Z,1014.66
2023-02-03T09:07:27.448Z,1014.64
2023-02-03T09:08:27.469Z,1014.59
2023-02-03T09:09:27.487Z,1014.62
2023-02-03T09:10:27.958Z,1014.64
2023-02-03T09:11:27.532Z,1014.62
2023-02-03T09:12:27.551Z,1014.58
2023-02-03T09:13:27.578Z,1014.60
2023-02-03T09:14:27.592Z,1014.62
2023-02-03T09:15:27.647Z,1014.62
2023-02-03T09:16:27.689Z,1014.64
2023-02-03T09:17:27.658Z,1014.70
2023-02-03T09:18:27.683Z,1014.74
2023-02-03T09:19:36.540Z,1014.64
2023-02-03T09:21:42.875Z,1014.71
2023-02-03T09:22:31.715Z,1014.78
2023-02-03T09:23:31.743Z,1014.88
2023-02-03T09:24:31.760Z,1014.87
2023-02-03T09:25:31.777Z,1014.90
2023-02-03T09:26:31.798Z,1014.90
2023-02-03T09:27:31.821Z,1014.85
2023-02-03T09:28:31.843Z,1014.87
2023-02-03T09:29:31.865Z,1014.88
2023-02-03T09:30:32.295Z,1014.89
2023-02-03T09:31:31.946Z,1014.98
2023-02-03T09:32:31.931Z,1014.90
2023-02-03T09:33:31.948Z,1014.89
2023-02-03T09:34:31.969Z,1014.82
2023-02-03T09:35:31.991Z,1014.86
2023-02-03T09:36:32.011Z,1014.83
2023-02-03T09:37:32.033Z,1014.84
2023-02-03T09:38:32.057Z,1014.93
2023-02-03T09:39:32.076Z,1014.96
2023-02-03T09:40:32.097Z,1014.86
2023-02-03T09:41:32.125Z,1014.82
2023-02-03T09:42:32.142Z,1014.85
2023-02-03T09:43:32.163Z,1014.87
2023-02-03T09:44:32.186Z,1014.78
2023-02-03T09:45:32.224Z,1014.95
2023-02-03T09:46:32.224Z,1014.87
2023-02-03T09:47:32.242Z,1014.79
2023-02-03T09:48:32.268Z,1014.78
2023-02-03T09:49:32.295Z,1014.71
2023-02-03T09:50:32.309Z,1014.79
2023-02-03T09:51:32.347Z,1014.82
2023-02-03T09:52:32.355Z,1014.73
2023-02-03T09:53:32.374Z,1014.75
2023-02-03T09:54:32.426Z,1014.77
2023-02-03T09:55:32.419Z,1014.76
2023-02-03T09:56:32.437Z,1014.75
2023-02-03T09:57:32.458Z,1014.78
2023-02-03T09:58:32.505Z,1014.69
2023-02-03T09:59:32.519Z,1014.75
2023-02-03T10:00:32.536Z,1014.69
2023-02-03T10:01:32.637Z,1014.72
2023-02-03T10:02:32.646Z,1014.72
2023-02-03T10:03:32.588Z,1014.66
2023-02-03T10:04:32.608Z,1014.71
2023-02-03T10:05:32.632Z,1014.74
2023-02-03T10:06:32.672Z,1014.77
2023-02-03T10:07:32.667Z,1014.78
2023-02-03T10:08:32.694Z,1014.73
2023-02-03T10:09:32.714Z,1014.89
2023-02-03T10:10:32.735Z,1014.83
2023-02-03T10:11:32.763Z,1014.90
2023-02-03T10:12:32.780Z,1014.89
2023-02-03T10:13:32.817Z,1014.86
2023-02-03T10:14:32.831Z,1014.87
2023-02-03T10:15:32.843Z,1014.89
2023-02-03T10:16:32.890Z,1014.92
2023-02-03T10:17:32.886Z,1015.00
2023-02-03T10:18:32.908Z,1015.04
2023-02-03T10:19:32.947Z,1014.91
2023-02-03T10:20:32.952Z,1015.04
2023-02-03T10:21:32.985Z,1014.94
2023-02-03T10:22:32.991Z,1015.12
2023-02-03T10:23:33.018Z,1015.14
2023-02-03T10:24:33.042Z,1015.29
2023-02-03T10:25:33.057Z,1015.28
2023-02-03T10:26:33.080Z,1015.27
2023-02-03T10:27:33.131Z,1015.26
2023-02-03T10:28:33.134Z,1015.37
2023-02-03T10:29:33.148Z,1015.37
2023-02-03T10:30:33.709Z,1015.38
2023-02-03T10:31:33.297Z,1015.35
2023-02-03T10:32:33.206Z,1015.27
2023-02-03T10:33:33.233Z,1015.39
2023-02-03T10:34:33.252Z,1015.39
2023-02-03T10:35:33.277Z,1015.39
2023-02-03T10:36:33.291Z,1015.49
2023-02-03T10:37:33.311Z,1015.21
2023-02-03T10:38:33.332Z,1015.26
2023-02-03T10:39:33.355Z,1015.31
2023-02-03T10:40:33.376Z,1015.46
2023-02-03T10:41:33.405Z,1015.46
2023-02-03T10:42:33.423Z,1015.47
2023-02-03T10:43:33.439Z,1015.37
2023-02-03T10:44:33.461Z,1015.33
2023-02-03T10:45:33.483Z,1015.31
2023-02-03T10:46:33.564Z,1015.32
2023-02-03T10:47:33.537Z,1015.18
2023-02-03T10:48:33.546Z,1015.30
2023-02-03T10:49:33.567Z,1015.23
2023-02-03T10:50:33.597Z,1015.32
2023-02-03T10:51:33.611Z,1015.27
2023-02-03T10:52:33.632Z,1015.30
2023-02-03T10:53:33.724Z,1015.26
2023-02-03T10:54:33.671Z,1015.27
2023-02-03T10:55:33.703Z,1015.19
2023-02-03T10:56:33.733Z,1015.28
2023-02-03T10:57:33.766Z,1015.29
2023-02-03T10:58:33.752Z,1015.23
2023-02-03T10:59:33.802Z,1015.35
2023-02-03T11:00:33.821Z,1015.34
2023-02-03T11:01:33.875Z,1015.34
2023-02-03T11:02:33.929Z,1015.34
2023-02-03T11:03:33.881Z,1015.35
2023-02-03T11:04:33.903Z,1015.30
2023-02-03T11:05:33.911Z,1015.40
2023-02-03T11:06:33.929Z,1015.45
2023-02-03T11:07:33.951Z,1015.48
2023-02-03T11:08:33.985Z,1015.55
2023-02-03T11:09:34.006Z,1015.47
2023-02-03T11:10:34.030Z,1015.48
2023-02-03T11:11:34.049Z,1015.49
2023-02-03T11:12:34.063Z,1015.61
2023-02-03T11:13:34.101Z,1015.56
2023-02-03T11:14:34.120Z,1015.51
2023-02-03T11:15:34.205Z,1015.50
2023-02-03T11:16:34.171Z,1015.44
2023-02-03T11:17:34.173Z,1015.45
2023-02-03T11:18:34.220Z,1015.43
2023-02-03T11:19:34.216Z,1015.40
2023-02-03T11:20:34.242Z,1015.38
2023-02-03T11:21:34.265Z,1015.36
2023-02-03T11:22:34.294Z,1015.38
2023-02-03T11:23:34.357Z,1015.37
2023-02-03T11:24:34.327Z,1015.37
2023-02-03T11:25:34.344Z,1015.38
2023-02-03T11:26:34.366Z,1015.40
2023-02-03T11:27:34.407Z,1015.46
2023-02-03T11:28:34.420Z,1015.39
2023-02-03T11:29:34.453Z,1015.44
2023-02-03T11:30:34.452Z,1015.41
2023-02-03T11:31:34.591Z,1015.32
2023-02-03T11:32:34.496Z,1015.52
2023-02-03T11:33:34.523Z,1015.40
2023-02-03T11:34:34.569Z,1015.40
2023-02-03T11:35:34.561Z,1015.45
2023-02-03T11:36:34.598Z,1015.40
2023-02-03T11:37:34.608Z,1015.18
2023-02-03T11:38:34.630Z,1015.43
2023-02-03T11:39:34.652Z,1015.36
2023-02-03T11:40:34.682Z,1015.45
2023-02-03T11:41:34.689Z,1015.51
2023-02-03T11:42:34.716Z,1015.58
2023-02-03T11:43:34.733Z,1015.59
2023-02-03T11:44:34.756Z,1015.62
2023-02-03T11:45:34.801Z,1015.52
2023-02-03T11:46:34.864Z,1015.57
2023-02-03T11:47:34.820Z,1015.60
2023-02-03T11:48:34.843Z,1015.59
2023-02-03T11:49:34.882Z,1015.55
2023-02-03T11:50:34.886Z,1015.60
2023-02-03T11:51:34.919Z,1015.61
2023-02-03T11:52:34.930Z,1015.51
2023-02-03T11:53:37.760Z,1015.46
2023-02-03T11:54:34.972Z,1015.64
2023-02-03T11:55:34.996Z,1015.57
2023-02-03T11:56:35.036Z,1015.49
2023-02-03T11:57:35.067Z,1015.51
2023-02-03T11:58:35.057Z,1015.49
2023-02-03T11:59:35.082Z,1015.56
2023-02-03T12:00:35.117Z,1015.62
2023-02-03T12:01:35.130Z,1015.53
2023-02-03T12:02:35.203Z,1015.60
2023-02-03T12:03:35.175Z,1015.61
2023-02-03T12:04:35.279Z,1015.66
2023-02-03T12:05:35.219Z,1015.75
2023-02-03T12:06:35.227Z,1015.74
2023-02-03T12:07:35.265Z,1015.72
2023-02-03T12:08:35.270Z,1015.76
2023-02-03T12:09:35.311Z,1015.75
2023-02-03T12:10:35.313Z,1015.73
2023-02-03T12:11:35.336Z,1015.82
2023-02-03T12:12:35.358Z,1015.81